sensor_id;sensor_type;location;lat;lon;timestamp;temperature;humidity
5466;DHT22;2755;50.728;7.108;2023-03-19T00:02:09;11.90;57.90
5466;DHT22;2755;50.728;7.108;2023-03-19T00:04:35;12.00;57.80
5466;DHT22;2755;50.728;7.108;2023-03-19T00:09:26;12.00;58.60
5466;DHT22;2755;50.728;7.108;2023-03-19T00:11:52;12.10;54.30
5466;DHT22;2755;50.728;7.108;2023-03-19T00:16:44;12.40;53.90
5466;DHT22;2755;50.728;7.108;2023-03-19T00:19:10;12.10;53.10
5466;DHT22;2755;50.728;7.108;2023-03-19T00:21:36;12.50;53.50
5466;DHT22;2755;50.728;7.108;2023-03-19T00:24:02;12.40;54.70
5466;DHT22;2755;50.728;7.108;2023-03-19T00:26:29;12.50;51.60
5466;DHT22;2755;50.728;7.108;2023-03-19T00:28:56;12.30;52.10
5466;DHT22;2755;50.728;7.108;2023-03-19T00:31:23;11.90;51.70
5466;DHT22;2755;50.728;7.108;2023-03-19T00:36:15;12.30;51.00
5466;DHT22;2755;50.728;7.108;2023-03-19T00:38:42;12.40;50.40
5466;DHT22;2755;50.728;7.108;2023-03-19T00:41:08;12.20;53.40
5466;DHT22;2755;50.728;7.108;2023-03-19T00:43:34;12.50;54.40
5466;DHT22;2755;50.728;7.108;2023-03-19T00:46:00;12.10;51.70
5466;DHT22;2755;50.728;7.108;2023-03-19T00:48:25;12.40;53.40
5466;DHT22;2755;50.728;7.108;2023-03-19T00:50:51;12.10;55.30
5466;DHT22;2755;50.728;7.108;2023-03-19T00:53:17;12.10;54.10
5466;DHT22;2755;50.728;7.108;2023-03-19T00:58:09;11.70;58.70
5466;DHT22;2755;50.728;7.108;2023-03-19T01:00:35;11.80;56.10
5466;DHT22;2755;50.728;7.108;2023-03-19T01:05:28;12.10;59.40
5466;DHT22;2755;50.728;7.108;2023-03-19T01:07:54;11.40;59.20
5466;DHT22;2755;50.728;7.108;2023-03-19T01:10:21;11.50;59.70
5466;DHT22;2755;50.728;7.108;2023-03-19T01:12:47;11.70;57.70
5466;DHT22;2755;50.728;7.108;2023-03-19T01:15:13;11.60;57.10
5466;DHT22;2755;50.728;7.108;2023-03-19T01:17:39;11.50;59.10
5466;DHT22;2755;50.728;7.108;2023-03-19T01:20:05;11.50;59.30
5466;DHT22;2755;50.728;7.108;2023-03-19T01:22:38;11.30;59.40
5466;DHT22;2755;50.728;7.108;2023-03-19T01:25:04;11.10;59.20
5466;DHT22;2755;50.728;7.108;2023-03-19T01:27:30;11.30;60.00
5466;DHT22;2755;50.728;7.108;2023-03-19T01:32:21;11.40;60.10
5466;DHT22;2755;50.728;7.108;2023-03-19T01:34:47;11.40;60.20
5466;DHT22;2755;50.728;7.108;2023-03-19T01:37:13;11.20;64.10
5466;DHT22;2755;50.728;7.108;2023-03-19T01:39:38;11.40;63.00
5466;DHT22;2755;50.728;7.108;2023-03-19T01:42:05;11.30;66.40
5466;DHT22;2755;50.728;7.108;2023-03-19T01:44:33;11.30;63.50
5466;DHT22;2755;50.728;7.108;2023-03-19T01:47:02;11.10;66.90
5466;DHT22;2755;50.728;7.108;2023-03-19T01:49:29;10.90;67.30
5466;DHT22;2755;50.728;7.108;2023-03-19T01:51:57;11.30;66.30
5466;DHT22;2755;50.728;7.108;2023-03-19T01:54:24;10.60;64.20
5466;DHT22;2755;50.728;7.108;2023-03-19T01:57:00;11.40;70.00
5466;DHT22;2755;50.728;7.108;2023-03-19T01:59:33;10.60;68.60
5466;DHT22;2755;50.728;7.108;2023-03-19T02:02:12;10.70;66.20
5466;DHT22;2755;50.728;7.108;2023-03-19T02:04:42;10.60;69.80
5466;DHT22;2755;50.728;7.108;2023-03-19T02:07:09;10.40;68.40
5466;DHT22;2755;50.728;7.108;2023-03-19T02:09:36;10.40;69.00
5466;DHT22;2755;50.728;7.108;2023-03-19T02:12:02;9.90;71.00
5466;DHT22;2755;50.728;7.108;2023-03-19T02:14:29;10.30;74.60
5466;DHT22;2755;50.728;7.108;2023-03-19T02:16:55;10.40;75.90
5466;DHT22;2755;50.728;7.108;2023-03-19T02:19:27;10.30;77.00
5466;DHT22;2755;50.728;7.108;2023-03-19T02:21:56;10.60;81.10
5466;DHT22;2755;50.728;7.108;2023-03-19T02:24:34;10.80;81.10
5466;DHT22;2755;50.728;7.108;2023-03-19T02:27:05;10.60;80.90
5466;DHT22;2755;50.728;7.108;2023-03-19T02:31:58;10.30;83.50
5466;DHT22;2755;50.728;7.108;2023-03-19T02:36:58;10.80;90.20
5466;DHT22;2755;50.728;7.108;2023-03-19T02:39:55;10.20;89.30
5466;DHT22;2755;50.728;7.108;2023-03-19T02:42:23;10.30;86.10
5466;DHT22;2755;50.728;7.108;2023-03-19T02:47:16;10.50;85.80
5466;DHT22;2755;50.728;7.108;2023-03-19T02:49:42;10.10;87.60
5466;DHT22;2755;50.728;7.108;2023-03-19T02:57:00;10.50;86.10
5466;DHT22;2755;50.728;7.108;2023-03-19T02:59:26;10.40;83.70
5466;DHT22;2755;50.728;7.108;2023-03-19T03:01:51;11.40;85.20
5466;DHT22;2755;50.728;7.108;2023-03-19T03:04:17;10.60;87.20
5466;DHT22;2755;50.728;7.108;2023-03-19T03:06:43;10.70;83.40
5466;DHT22;2755;50.728;7.108;2023-03-19T03:09:09;10.60;86.60
5466;DHT22;2755;50.728;7.108;2023-03-19T03:11:35;10.70;83.90
5466;DHT22;2755;50.728;7.108;2023-03-19T03:14:00;10.70;84.20
5466;DHT22;2755;50.728;7.108;2023-03-19T03:16:26;11.00;86.90
5466;DHT22;2755;50.728;7.108;2023-03-19T03:18:52;10.60;83.10
5466;DHT22;2755;50.728;7.108;2023-03-19T03:21:18;10.50;82.40
5466;DHT22;2755;50.728;7.108;2023-03-19T03:23:46;10.70;81.20
5466;DHT22;2755;50.728;7.108;2023-03-19T03:26:11;11.40;84.00
5466;DHT22;2755;50.728;7.108;2023-03-19T03:28:37;10.90;77.60
5466;DHT22;2755;50.728;7.108;2023-03-19T03:31:02;11.20;75.80
5466;DHT22;2755;50.728;7.108;2023-03-19T03:33:28;11.00;73.90
5466;DHT22;2755;50.728;7.108;2023-03-19T03:35:54;10.90;74.80
5466;DHT22;2755;50.728;7.108;2023-03-19T03:38:20;13.70;72.60
5466;DHT22;2755;50.728;7.108;2023-03-19T03:40:49;11.70;73.90
5466;DHT22;2755;50.728;7.108;2023-03-19T03:45:43;11.20;70.60
5466;DHT22;2755;50.728;7.108;2023-03-19T03:48:09;11.50;68.40
5466;DHT22;2755;50.728;7.108;2023-03-19T03:50:35;11.40;68.20
5466;DHT22;2755;50.728;7.108;2023-03-19T03:53:00;11.30;67.60
5466;DHT22;2755;50.728;7.108;2023-03-19T03:55:26;11.20;70.20
5466;DHT22;2755;50.728;7.108;2023-03-19T03:57:52;11.30;67.40
5466;DHT22;2755;50.728;7.108;2023-03-19T04:00:18;11.00;66.60
5466;DHT22;2755;50.728;7.108;2023-03-19T04:02:44;10.80;69.80
5466;DHT22;2755;50.728;7.108;2023-03-19T04:05:10;11.20;70.40
5466;DHT22;2755;50.728;7.108;2023-03-19T04:07:37;10.80;67.00
5466;DHT22;2755;50.728;7.108;2023-03-19T04:10:03;11.30;66.40
5466;DHT22;2755;50.728;7.108;2023-03-19T04:12:29;11.00;67.50
5466;DHT22;2755;50.728;7.108;2023-03-19T04:14:54;11.30;70.70
5466;DHT22;2755;50.728;7.108;2023-03-19T04:22:12;11.20;71.40
5466;DHT22;2755;50.728;7.108;2023-03-19T04:24:38;11.50;72.40
5466;DHT22;2755;50.728;7.108;2023-03-19T04:27:03;10.50;71.30
5466;DHT22;2755;50.728;7.108;2023-03-19T04:29:29;10.70;68.70
5466;DHT22;2755;50.728;7.108;2023-03-19T04:31:55;11.10;69.40
5466;DHT22;2755;50.728;7.108;2023-03-19T04:36:46;11.10;69.80
5466;DHT22;2755;50.728;7.108;2023-03-19T04:39:13;11.10;68.80
5466;DHT22;2755;50.728;7.108;2023-03-19T04:41:38;10.80;69.40
5466;DHT22;2755;50.728;7.108;2023-03-19T04:44:04;10.50;71.10
5466;DHT22;2755;50.728;7.108;2023-03-19T04:46:30;11.40;70.60
5466;DHT22;2755;50.728;7.108;2023-03-19T04:48:55;11.40;69.60
5466;DHT22;2755;50.728;7.108;2023-03-19T04:51:21;10.60;68.80
5466;DHT22;2755;50.728;7.108;2023-03-19T04:53:47;11.00;72.30
5466;DHT22;2755;50.728;7.108;2023-03-19T04:56:13;11.50;73.40
5466;DHT22;2755;50.728;7.108;2023-03-19T04:58:41;11.30;69.40
5466;DHT22;2755;50.728;7.108;2023-03-19T05:01:07;11.00;69.80
5466;DHT22;2755;50.728;7.108;2023-03-19T05:03:32;11.10;73.20
5466;DHT22;2755;50.728;7.108;2023-03-19T05:05:58;11.10;70.50
5466;DHT22;2755;50.728;7.108;2023-03-19T05:08:24;11.30;74.10
5466;DHT22;2755;50.728;7.108;2023-03-19T05:10:49;10.70;75.50
5466;DHT22;2755;50.728;7.108;2023-03-19T05:13:15;10.20;74.30
5466;DHT22;2755;50.728;7.108;2023-03-19T05:15:42;10.60;72.70
5466;DHT22;2755;50.728;7.108;2023-03-19T05:18:07;10.90;75.00
5466;DHT22;2755;50.728;7.108;2023-03-19T05:20:33;10.50;77.60
5466;DHT22;2755;50.728;7.108;2023-03-19T05:22:59;10.60;79.70
5466;DHT22;2755;50.728;7.108;2023-03-19T05:27:51;10.60;79.20
5466;DHT22;2755;50.728;7.108;2023-03-19T05:30:17;10.40;80.10
5466;DHT22;2755;50.728;7.108;2023-03-19T05:32:43;10.60;81.30
5466;DHT22;2755;50.728;7.108;2023-03-19T05:35:11;10.50;77.40
5466;DHT22;2755;50.728;7.108;2023-03-19T05:37:37;9.80;78.60
5466;DHT22;2755;50.728;7.108;2023-03-19T05:40:03;10.90;78.20
5466;DHT22;2755;50.728;7.108;2023-03-19T05:42:29;10.90;80.50
5466;DHT22;2755;50.728;7.108;2023-03-19T05:44:55;9.20;75.70
5466;DHT22;2755;50.728;7.108;2023-03-19T05:52:13;10.70;76.30
5466;DHT22;2755;50.728;7.108;2023-03-19T05:54:38;10.90;76.50
5466;DHT22;2755;50.728;7.108;2023-03-19T05:57:04;10.90;76.90
5466;DHT22;2755;50.728;7.108;2023-03-19T05:59:30;10.50;76.10
5466;DHT22;2755;50.728;7.108;2023-03-19T06:01:55;10.10;77.70
5466;DHT22;2755;50.728;7.108;2023-03-19T06:06:47;11.00;76.60
5466;DHT22;2755;50.728;7.108;2023-03-19T06:11:39;11.10;76.60
5466;DHT22;2755;50.728;7.108;2023-03-19T06:14:05;10.30;75.20
5466;DHT22;2755;50.728;7.108;2023-03-19T06:16:31;10.80;78.80
5466;DHT22;2755;50.728;7.108;2023-03-19T06:18:57;10.80;75.80
5466;DHT22;2755;50.728;7.108;2023-03-19T06:21:23;11.20;76.40
5466;DHT22;2755;50.728;7.108;2023-03-19T06:23:54;11.30;77.50
5466;DHT22;2755;50.728;7.108;2023-03-19T06:26:20;11.30;76.40
5466;DHT22;2755;50.728;7.108;2023-03-19T06:28:45;11.00;76.40
5466;DHT22;2755;50.728;7.108;2023-03-19T06:31:11;11.40;76.50
5466;DHT22;2755;50.728;7.108;2023-03-19T06:33:36;11.50;79.90
5466;DHT22;2755;50.728;7.108;2023-03-19T06:36:02;11.30;79.30
5466;DHT22;2755;50.728;7.108;2023-03-19T06:40:54;12.00;78.80
5466;DHT22;2755;50.728;7.108;2023-03-19T06:43:19;11.60;78.70
5466;DHT22;2755;50.728;7.108;2023-03-19T06:48:11;11.60;74.30
5466;DHT22;2755;50.728;7.108;2023-03-19T06:50:36;11.60;75.40
5466;DHT22;2755;50.728;7.108;2023-03-19T06:53:02;11.70;75.00
5466;DHT22;2755;50.728;7.108;2023-03-19T06:57:55;11.80;77.60
5466;DHT22;2755;50.728;7.108;2023-03-19T07:02:48;12.20;78.10
5466;DHT22;2755;50.728;7.108;2023-03-19T07:05:13;11.90;76.00
5466;DHT22;2755;50.728;7.108;2023-03-19T07:07:39;12.20;76.50
5466;DHT22;2755;50.728;7.108;2023-03-19T07:10:05;11.70;73.90
5466;DHT22;2755;50.728;7.108;2023-03-19T07:12:31;12.50;72.20
5466;DHT22;2755;50.728;7.108;2023-03-19T07:14:57;12.30;73.50
5466;DHT22;2755;50.728;7.108;2023-03-19T07:17:23;12.20;71.20
5466;DHT22;2755;50.728;7.108;2023-03-19T07:22:15;12.10;73.00
5466;DHT22;2755;50.728;7.108;2023-03-19T07:24:41;12.70;73.70
5466;DHT22;2755;50.728;7.108;2023-03-19T07:27:07;12.40;70.10
5466;DHT22;2755;50.728;7.108;2023-03-19T07:29:32;12.30;70.00
5466;DHT22;2755;50.728;7.108;2023-03-19T07:31:58;12.80;69.60
5466;DHT22;2755;50.728;7.108;2023-03-19T07:34:24;12.70;69.80
5466;DHT22;2755;50.728;7.108;2023-03-19T07:36:49;12.40;71.10
5466;DHT22;2755;50.728;7.108;2023-03-19T07:39:15;12.60;68.20
5466;DHT22;2755;50.728;7.108;2023-03-19T07:41:41;12.80;67.30
5466;DHT22;2755;50.728;7.108;2023-03-19T07:44:09;13.10;67.00
5466;DHT22;2755;50.728;7.108;2023-03-19T07:46:36;12.90;69.50
5466;DHT22;2755;50.728;7.108;2023-03-19T07:49:01;12.70;66.50
5466;DHT22;2755;50.728;7.108;2023-03-19T07:53:53;13.10;66.60
5466;DHT22;2755;50.728;7.108;2023-03-19T07:56:18;13.00;65.50
5466;DHT22;2755;50.728;7.108;2023-03-19T07:58:44;12.80;67.40
5466;DHT22;2755;50.728;7.108;2023-03-19T08:01:09;12.70;67.00
5466;DHT22;2755;50.728;7.108;2023-03-19T08:03:35;13.10;67.90
5466;DHT22;2755;50.728;7.108;2023-03-19T08:06:01;13.30;65.00
5466;DHT22;2755;50.728;7.108;2023-03-19T08:08:26;12.40;64.00
5466;DHT22;2755;50.728;7.108;2023-03-19T08:10:53;13.00;64.70
5466;DHT22;2755;50.728;7.108;2023-03-19T08:13:19;12.90;63.50
5466;DHT22;2755;50.728;7.108;2023-03-19T08:18:10;12.90;62.70
5466;DHT22;2755;50.728;7.108;2023-03-19T08:20:36;13.00;63.10
5466;DHT22;2755;50.728;7.108;2023-03-19T08:23:02;12.90;63.40
5466;DHT22;2755;50.728;7.108;2023-03-19T08:27:59;13.20;64.40
5466;DHT22;2755;50.728;7.108;2023-03-19T08:30:25;13.10;67.20
5466;DHT22;2755;50.728;7.108;2023-03-19T08:32:50;13.70;64.40
5466;DHT22;2755;50.728;7.108;2023-03-19T08:35:17;13.70;64.90
5466;DHT22;2755;50.728;7.108;2023-03-19T08:40:09;13.10;64.10
5466;DHT22;2755;50.728;7.108;2023-03-19T08:42:35;13.30;64.40
5466;DHT22;2755;50.728;7.108;2023-03-19T08:45:03;13.30;64.30
5466;DHT22;2755;50.728;7.108;2023-03-19T08:49:55;13.00;66.60
5466;DHT22;2755;50.728;7.108;2023-03-19T08:54:47;13.40;66.10
5466;DHT22;2755;50.728;7.108;2023-03-19T08:57:12;13.60;67.70
5466;DHT22;2755;50.728;7.108;2023-03-19T08:59:38;12.80;67.10
5466;DHT22;2755;50.728;7.108;2023-03-19T09:02:03;12.80;65.70
5466;DHT22;2755;50.728;7.108;2023-03-19T09:04:29;12.40;65.80
5466;DHT22;2755;50.728;7.108;2023-03-19T09:06:55;12.50;69.10
5466;DHT22;2755;50.728;7.108;2023-03-19T09:09:22;12.80;66.20
5466;DHT22;2755;50.728;7.108;2023-03-19T09:14:15;12.80;67.50
5466;DHT22;2755;50.728;7.108;2023-03-19T09:16:41;12.80;69.80
5466;DHT22;2755;50.728;7.108;2023-03-19T09:19:07;12.90;72.00
5466;DHT22;2755;50.728;7.108;2023-03-19T09:21:34;13.10;69.90
5466;DHT22;2755;50.728;7.108;2023-03-19T09:24:00;12.90;74.60
5466;DHT22;2755;50.728;7.108;2023-03-19T09:26:26;12.50;74.40
5466;DHT22;2755;50.728;7.108;2023-03-19T09:31:18;12.70;74.60
5466;DHT22;2755;50.728;7.108;2023-03-19T09:36:09;12.90;86.90
5466;DHT22;2755;50.728;7.108;2023-03-19T09:38:35;13.40;88.50
5466;DHT22;2755;50.728;7.108;2023-03-19T09:41:09;12.40;90.60
5466;DHT22;2755;50.728;7.108;2023-03-19T09:44:13;12.60;89.40
5466;DHT22;2755;50.728;7.108;2023-03-19T09:46:50;12.60;85.50
5466;DHT22;2755;50.728;7.108;2023-03-19T09:49:28;12.50;87.40
5466;DHT22;2755;50.728;7.108;2023-03-19T09:52:47;12.50;90.00
5466;DHT22;2755;50.728;7.108;2023-03-19T09:54:49;11.90;92.80
5466;DHT22;2755;50.728;7.108;2023-03-19T09:57:19;12.00;94.40
5466;DHT22;2755;50.728;7.108;2023-03-19T09:59:46;12.30;95.80
5466;DHT22;2755;50.728;7.108;2023-03-19T10:02:37;13.00;95.80
5466;DHT22;2755;50.728;7.108;2023-03-19T10:10:54;12.50;97.60
5466;DHT22;2755;50.728;7.108;2023-03-19T10:16:00;12.30;98.70
5466;DHT22;2755;50.728;7.108;2023-03-19T10:18:30;12.40;95.10
5466;DHT22;2755;50.728;7.108;2023-03-19T10:21:02;12.90;94.50
5466;DHT22;2755;50.728;7.108;2023-03-19T10:23:44;13.00;94.50
5466;DHT22;2755;50.728;7.108;2023-03-19T10:26:14;13.10;93.30
5466;DHT22;2755;50.728;7.108;2023-03-19T10:28:43;13.40;94.20
5466;DHT22;2755;50.728;7.108;2023-03-19T10:37:23;14.10;81.60
5466;DHT22;2755;50.728;7.108;2023-03-19T10:39:52;14.30;80.80
5466;DHT22;2755;50.728;7.108;2023-03-19T10:43:00;14.10;82.20
5466;DHT22;2755;50.728;7.108;2023-03-19T10:45:31;14.30;81.00
5466;DHT22;2755;50.728;7.108;2023-03-19T10:47:58;14.00;81.00
5466;DHT22;2755;50.728;7.108;2023-03-19T10:55:58;14.70;71.50
5466;DHT22;2755;50.728;7.108;2023-03-19T10:58:26;14.60;70.50
5466;DHT22;2755;50.728;7.108;2023-03-19T11:00:58;14.60;75.10
5466;DHT22;2755;50.728;7.108;2023-03-19T11:08:35;13.40;83.20
5466;DHT22;2755;50.728;7.108;2023-03-19T11:11:01;13.50;81.80
5466;DHT22;2755;50.728;7.108;2023-03-19T11:13:27;13.70;86.40
5466;DHT22;2755;50.728;7.108;2023-03-19T11:15:55;13.10;86.40
5466;DHT22;2755;50.728;7.108;2023-03-19T11:18:23;13.30;86.00
5466;DHT22;2755;50.728;7.108;2023-03-19T11:20:59;13.50;83.70
5466;DHT22;2755;50.728;7.108;2023-03-19T11:23:29;13.60;84.10
5466;DHT22;2755;50.728;7.108;2023-03-19T11:25:59;14.10;87.40
5466;DHT22;2755;50.728;7.108;2023-03-19T11:28:28;13.40;81.10
5466;DHT22;2755;50.728;7.108;2023-03-19T11:31:14;13.70;80.00
5466;DHT22;2755;50.728;7.108;2023-03-19T11:39:33;13.70;91.10
5466;DHT22;2755;50.728;7.108;2023-03-19T11:51:21;15.50;83.80
5466;DHT22;2755;50.728;7.108;2023-03-19T11:56:41;16.40;62.50
5466;DHT22;2755;50.728;7.108;2023-03-19T12:07:09;15.60;57.10
5466;DHT22;2755;50.728;7.108;2023-03-19T12:09:58;15.70;58.50
5466;DHT22;2755;50.728;7.108;2023-03-19T12:12:43;15.90;63.20
5466;DHT22;2755;50.728;7.108;2023-03-19T12:18:00;14.90;63.60
5466;DHT22;2755;50.728;7.108;2023-03-19T12:20:55;15.00;62.20
5466;DHT22;2755;50.728;7.108;2023-03-19T12:23:56;15.30;63.90
5466;DHT22;2755;50.728;7.108;2023-03-19T12:32:21;14.40;64.70
5466;DHT22;2755;50.728;7.108;2023-03-19T12:34:54;13.80;71.70
5466;DHT22;2755;50.728;7.108;2023-03-19T12:37:32;14.20;74.70
5466;DHT22;2755;50.728;7.108;2023-03-19T12:40:28;14.50;76.30
5466;DHT22;2755;50.728;7.108;2023-03-19T12:42:58;14.10;80.50
5466;DHT22;2755;50.728;7.108;2023-03-19T12:45:33;13.70;81.80
5466;DHT22;2755;50.728;7.108;2023-03-19T12:48:15;14.30;80.20
5466;DHT22;2755;50.728;7.108;2023-03-19T12:50:46;14.40;83.70
5466;DHT22;2755;50.728;7.108;2023-03-19T12:53:51;13.90;78.40
5466;DHT22;2755;50.728;7.108;2023-03-19T12:59:28;15.00;78.70
5466;DHT22;2755;50.728;7.108;2023-03-19T13:02:46;15.00;72.20
5466;DHT22;2755;50.728;7.108;2023-03-19T13:07:25;15.20;64.80
5466;DHT22;2755;50.728;7.108;2023-03-19T13:10:19;15.20;65.80
5466;DHT22;2755;50.728;7.108;2023-03-19T13:12:47;15.10;69.70
5466;DHT22;2755;50.728;7.108;2023-03-19T13:15:15;14.90;70.90
5466;DHT22;2755;50.728;7.108;2023-03-19T13:23:29;15.50;75.20
5466;DHT22;2755;50.728;7.108;2023-03-19T13:25:57;14.70;71.90
5466;DHT22;2755;50.728;7.108;2023-03-19T13:28:32;14.70;70.00
5466;DHT22;2755;50.728;7.108;2023-03-19T13:31:05;14.40;73.60
5466;DHT22;2755;50.728;7.108;2023-03-19T13:33:33;14.30;76.70
5466;DHT22;2755;50.728;7.108;2023-03-19T13:36:03;14.00;78.00
5466;DHT22;2755;50.728;7.108;2023-03-19T13:38:39;13.70;84.40
5466;DHT22;2755;50.728;7.108;2023-03-19T13:44:28;13.50;91.40
5466;DHT22;2755;50.728;7.108;2023-03-19T13:47:01;13.10;97.70
5466;DHT22;2755;50.728;7.108;2023-03-19T13:49:34;12.70;97.30
5466;DHT22;2755;50.728;7.108;2023-03-19T13:52:33;12.60;99.90
5466;DHT22;2755;50.728;7.108;2023-03-19T13:54:52;13.10;99.90
5466;DHT22;2755;50.728;7.108;2023-03-19T13:57:20;12.40;99.90
5466;DHT22;2755;50.728;7.108;2023-03-19T13:59:48;12.60;99.90
5466;DHT22;2755;50.728;7.108;2023-03-19T14:04:59;12.90;99.90
5466;DHT22;2755;50.728;7.108;2023-03-19T14:07:28;12.70;99.90
5466;DHT22;2755;50.728;7.108;2023-03-19T14:12:37;12.20;99.90
5466;DHT22;2755;50.728;7.108;2023-03-19T14:17:41;12.80;99.90
5466;DHT22;2755;50.728;7.108;2023-03-19T14:22:51;13.30;99.90
5466;DHT22;2755;50.728;7.108;2023-03-19T14:25:22;13.00;99.90
5466;DHT22;2755;50.728;7.108;2023-03-19T14:27:53;13.00;99.90
5466;DHT22;2755;50.728;7.108;2023-03-19T14:30:33;13.10;99.90
5466;DHT22;2755;50.728;7.108;2023-03-19T14:33:04;12.80;99.90
5466;DHT22;2755;50.728;7.108;2023-03-19T14:35:35;12.60;99.90
5466;DHT22;2755;50.728;7.108;2023-03-19T14:38:21;12.90;99.90
5466;DHT22;2755;50.728;7.108;2023-03-19T14:41:03;12.60;99.90
5466;DHT22;2755;50.728;7.108;2023-03-19T14:56:55;12.80;99.90
5466;DHT22;2755;50.728;7.108;2023-03-19T14:59:21;12.60;99.90
5466;DHT22;2755;50.728;7.108;2023-03-19T15:01:52;12.80;99.90
5466;DHT22;2755;50.728;7.108;2023-03-19T15:04:21;12.60;99.90
5466;DHT22;2755;50.728;7.108;2023-03-19T15:06:58;12.80;99.90
5466;DHT22;2755;50.728;7.108;2023-03-19T15:09:30;13.20;99.90
5466;DHT22;2755;50.728;7.108;2023-03-19T15:14:48;13.00;99.90
5466;DHT22;2755;50.728;7.108;2023-03-19T15:17:30;13.20;99.90
5466;DHT22;2755;50.728;7.108;2023-03-19T15:19:59;12.70;99.90
5466;DHT22;2755;50.728;7.108;2023-03-19T15:27:21;13.70;99.90
5466;DHT22;2755;50.728;7.108;2023-03-19T15:29:46;12.90;99.90
5466;DHT22;2755;50.728;7.108;2023-03-19T15:32:12;13.20;99.90
5466;DHT22;2755;50.728;7.108;2023-03-19T15:34:55;13.00;99.90
5466;DHT22;2755;50.728;7.108;2023-03-19T15:37:21;13.10;99.90
5466;DHT22;2755;50.728;7.108;2023-03-19T15:39:50;13.20;99.90
5466;DHT22;2755;50.728;7.108;2023-03-19T15:42:18;13.10;99.90
5466;DHT22;2755;50.728;7.108;2023-03-19T15:44:48;13.40;99.90
5466;DHT22;2755;50.728;7.108;2023-03-19T15:47:21;13.40;99.90
5466;DHT22;2755;50.728;7.108;2023-03-19T15:49:53;13.20;99.90
5466;DHT22;2755;50.728;7.108;2023-03-19T15:52:20;13.20;99.90
5466;DHT22;2755;50.728;7.108;2023-03-19T15:54:46;13.60;99.90
5466;DHT22;2755;50.728;7.108;2023-03-19T15:57:16;13.40;99.90
5466;DHT22;2755;50.728;7.108;2023-03-19T15:59:42;13.40;97.70
5466;DHT22;2755;50.728;7.108;2023-03-19T16:04:46;12.80;97.00
5466;DHT22;2755;50.728;7.108;2023-03-19T16:07:42;13.10;98.00
5466;DHT22;2755;50.728;7.108;2023-03-19T16:10:41;12.90;99.90
5466;DHT22;2755;50.728;7.108;2023-03-19T16:13:31;12.70;99.90
5466;DHT22;2755;50.728;7.108;2023-03-19T16:16:05;12.70;99.90
5466;DHT22;2755;50.728;7.108;2023-03-19T16:18:47;12.50;99.90
5466;DHT22;2755;50.728;7.108;2023-03-19T16:21:23;12.20;99.90
5466;DHT22;2755;50.728;7.108;2023-03-19T16:29:06;11.90;99.90
5466;DHT22;2755;50.728;7.108;2023-03-19T16:31:41;12.20;99.90
5466;DHT22;2755;50.728;7.108;2023-03-19T16:36:48;11.90;99.90
5466;DHT22;2755;50.728;7.108;2023-03-19T16:44:39;11.60;99.90
5466;DHT22;2755;50.728;7.108;2023-03-19T16:47:10;11.40;99.90
5466;DHT22;2755;50.728;7.108;2023-03-19T16:49:36;11.60;99.90
5466;DHT22;2755;50.728;7.108;2023-03-19T16:52:02;11.70;99.90
5466;DHT22;2755;50.728;7.108;2023-03-19T16:54:29;11.20;99.90
5466;DHT22;2755;50.728;7.108;2023-03-19T16:56:55;11.50;99.90
5466;DHT22;2755;50.728;7.108;2023-03-19T16:59:26;11.40;99.90
5466;DHT22;2755;50.728;7.108;2023-03-19T17:01:52;10.60;99.90
5466;DHT22;2755;50.728;7.108;2023-03-19T17:04:17;11.50;99.90
5466;DHT22;2755;50.728;7.108;2023-03-19T17:11:38;11.60;99.90
5466;DHT22;2755;50.728;7.108;2023-03-19T17:14:06;11.40;99.90
5466;DHT22;2755;50.728;7.108;2023-03-19T17:19:05;11.30;99.90
5466;DHT22;2755;50.728;7.108;2023-03-19T17:21:34;11.20;99.90
5466;DHT22;2755;50.728;7.108;2023-03-19T17:26:45;11.00;99.90
5466;DHT22;2755;50.728;7.108;2023-03-19T17:34:08;10.80;99.90
5466;DHT22;2755;50.728;7.108;2023-03-19T17:36:34;11.00;99.90
5466;DHT22;2755;50.728;7.108;2023-03-19T17:39:00;10.20;99.90
5466;DHT22;2755;50.728;7.108;2023-03-19T17:41:30;10.70;99.90
5466;DHT22;2755;50.728;7.108;2023-03-19T17:46:25;10.70;99.90
5466;DHT22;2755;50.728;7.108;2023-03-19T17:48:52;10.70;99.90
5466;DHT22;2755;50.728;7.108;2023-03-19T17:51:18;10.50;99.90
5466;DHT22;2755;50.728;7.108;2023-03-19T17:53:48;10.60;99.90
5466;DHT22;2755;50.728;7.108;2023-03-19T17:56:16;10.60;99.90
5466;DHT22;2755;50.728;7.108;2023-03-19T17:58:42;10.50;99.90
5466;DHT22;2755;50.728;7.108;2023-03-19T18:01:14;10.70;99.90
5466;DHT22;2755;50.728;7.108;2023-03-19T18:03:40;10.20;99.90
5466;DHT22;2755;50.728;7.108;2023-03-19T18:06:15;10.40;99.90
5466;DHT22;2755;50.728;7.108;2023-03-19T18:08:41;10.50;99.90
5466;DHT22;2755;50.728;7.108;2023-03-19T18:11:07;9.00;99.90
5466;DHT22;2755;50.728;7.108;2023-03-19T18:13:33;10.40;99.90
5466;DHT22;2755;50.728;7.108;2023-03-19T18:20:51;10.70;99.90
5466;DHT22;2755;50.728;7.108;2023-03-19T18:23:17;10.50;99.90
5466;DHT22;2755;50.728;7.108;2023-03-19T18:25:44;10.40;99.90
5466;DHT22;2755;50.728;7.108;2023-03-19T18:28:10;11.00;99.90
5466;DHT22;2755;50.728;7.108;2023-03-19T18:30:37;10.70;99.90
5466;DHT22;2755;50.728;7.108;2023-03-19T18:33:05;10.60;99.90
5466;DHT22;2755;50.728;7.108;2023-03-19T18:38:18;10.40;99.90
5466;DHT22;2755;50.728;7.108;2023-03-19T18:40:44;10.60;99.90
5466;DHT22;2755;50.728;7.108;2023-03-19T18:43:10;10.50;99.90
5466;DHT22;2755;50.728;7.108;2023-03-19T18:45:37;10.00;99.90
5466;DHT22;2755;50.728;7.108;2023-03-19T18:48:27;10.60;99.90
5466;DHT22;2755;50.728;7.108;2023-03-19T18:53:22;10.50;99.90
5466;DHT22;2755;50.728;7.108;2023-03-19T18:55:48;10.40;99.90
5466;DHT22;2755;50.728;7.108;2023-03-19T18:58:20;10.50;99.90
5466;DHT22;2755;50.728;7.108;2023-03-19T19:00:46;10.50;99.90
5466;DHT22;2755;50.728;7.108;2023-03-19T19:03:15;10.50;99.90
5466;DHT22;2755;50.728;7.108;2023-03-19T19:08:13;10.60;99.90
5466;DHT22;2755;50.728;7.108;2023-03-19T19:10:42;10.60;99.90
5466;DHT22;2755;50.728;7.108;2023-03-19T19:13:15;10.60;99.90
5466;DHT22;2755;50.728;7.108;2023-03-19T19:18:21;10.60;99.90
5466;DHT22;2755;50.728;7.108;2023-03-19T19:20:48;10.50;99.90
5466;DHT22;2755;50.728;7.108;2023-03-19T19:25:43;10.60;99.90
5466;DHT22;2755;50.728;7.108;2023-03-19T19:30:35;10.70;99.90
5466;DHT22;2755;50.728;7.108;2023-03-19T19:33:01;10.70;99.90
5466;DHT22;2755;50.728;7.108;2023-03-19T19:37:56;11.20;99.90
5466;DHT22;2755;50.728;7.108;2023-03-19T19:40:27;11.40;99.90
5466;DHT22;2755;50.728;7.108;2023-03-19T19:47:56;10.70;99.90
5466;DHT22;2755;50.728;7.108;2023-03-19T19:50:22;10.60;99.90
5466;DHT22;2755;50.728;7.108;2023-03-19T19:52:50;10.70;99.90
5466;DHT22;2755;50.728;7.108;2023-03-19T20:00:20;10.70;99.90
5466;DHT22;2755;50.728;7.108;2023-03-19T20:02:47;10.70;99.90
5466;DHT22;2755;50.728;7.108;2023-03-19T20:05:22;10.60;99.90
5466;DHT22;2755;50.728;7.108;2023-03-19T20:07:50;10.70;99.90
5466;DHT22;2755;50.728;7.108;2023-03-19T20:10:16;10.70;99.90
5466;DHT22;2755;50.728;7.108;2023-03-19T20:12:43;10.70;99.90
5466;DHT22;2755;50.728;7.108;2023-03-19T20:15:30;10.50;99.90
5466;DHT22;2755;50.728;7.108;2023-03-19T20:17:58;10.30;99.90
5466;DHT22;2755;50.728;7.108;2023-03-19T20:20:26;10.70;99.90
5466;DHT22;2755;50.728;7.108;2023-03-19T20:22:53;10.70;99.90
5466;DHT22;2755;50.728;7.108;2023-03-19T20:25:21;10.50;99.90
5466;DHT22;2755;50.728;7.108;2023-03-19T20:27:50;10.60;99.90
5466;DHT22;2755;50.728;7.108;2023-03-19T20:32:47;11.10;99.90